createdAt,value
2024-02-15T00:01:44.660Z,101658.63
2024-02-15T00:04:12.371Z,101659.78
2024-02-15T00:06:39.092Z,101659.16
2024-02-15T00:09:05.698Z,101656.19
2024-02-15T00:11:33.522Z,101655.53
2024-02-15T00:14:00.193Z,101654.09
2024-02-15T00:16:28.616Z,101649.38
2024-02-15T00:18:56.521Z,101653.25
2024-02-15T00:21:23.977Z,101654.75
2024-02-15T00:23:50.460Z,101647.59
2024-02-15T00:26:17.237Z,101647.75
2024-02-15T00:28:43.847Z,101652.94
2024-02-15T00:31:10.324Z,101651.00
2024-02-15T00:33:38.163Z,101657.84
2024-02-15T00:36:05.667Z,101655.41
2024-02-15T00:38:35.193Z,101651.00
2024-02-15T00:41:01.744Z,101644.03
2024-02-15T00:43:28.707Z,101654.44
2024-02-15T00:45:55.220Z,101646.16
2024-02-15T00:48:21.957Z,101633.78
2024-02-15T00:50:49.467Z,101635.09
2024-02-15T00:53:17.852Z,101639.50
2024-02-15T00:55:44.345Z,101638.50
2024-02-15T00:58:10.974Z,101639.63
2024-02-15T01:00:37.544Z,101635.44
2024-02-15T01:03:04.547Z,101633.00
2024-02-15T01:05:31.630Z,101636.56
2024-02-15T01:07:58.284Z,101631.53
2024-02-15T01:10:27.873Z,101632.63
2024-02-15T01:12:54.525Z,101631.47
2024-02-15T01:15:21.865Z,101627.75
2024-02-15T01:17:48.526Z,101619.44
2024-02-15T01:20:15.097Z,101625.50
2024-02-15T01:22:41.573Z,101621.88
2024-02-15T01:25:08.171Z,101620.91
2024-02-15T01:27:35.086Z,101581.97
2024-02-15T01:30:01.818Z,101612.47
2024-02-15T01:32:28.464Z,101616.81
2024-02-15T01:34:56.189Z,101626.63
2024-02-15T01:37:22.837Z,101617.34
2024-02-15T01:39:51.246Z,101619.28
2024-02-15T01:42:17.801Z,101623.88
2024-02-15T01:44:48.942Z,101625.63
2024-02-15T01:47:16.784Z,101619.63
2024-02-15T01:49:43.472Z,101613.31
2024-02-15T01:52:10.646Z,101611.69
2024-02-15T01:54:37.152Z,101612.31
2024-02-15T01:57:04.377Z,101595.06
2024-02-15T01:59:31.796Z,101606.81
2024-02-15T02:01:58.331Z,101598.97
2024-02-15T02:04:24.840Z,101596.38
2024-02-15T02:06:51.498Z,101588.41
2024-02-15T02:09:18.314Z,101595.59
2024-02-15T02:11:49.488Z,101581.75
2024-02-15T02:14:16.156Z,101605.34
2024-02-15T02:16:42.921Z,101591.81
2024-02-15T02:19:10.549Z,101593.47
2024-02-15T02:21:37.952Z,101593.31
2024-02-15T02:24:10.673Z,101593.31
2024-02-15T02:26:37.297Z,101582.75
2024-02-15T02:29:06.110Z,101590.56
2024-02-15T02:31:36.155Z,101590.84
2024-02-15T02:34:03.018Z,101581.75
2024-02-15T02:36:30.456Z,101579.78
2024-02-15T02:39:01.659Z,101583.06
2024-02-15T02:41:29.488Z,101579.16
2024-02-15T02:43:58.334Z,101579.78
2024-02-15T02:46:24.927Z,101557.94
2024-02-15T02:48:51.552Z,101572.94
2024-02-15T02:51:18.512Z,101571.94
2024-02-15T02:53:45.125Z,101584.16
2024-02-15T02:56:11.662Z,101586.75
2024-02-15T02:58:38.382Z,101579.25
2024-02-15T03:01:04.951Z,101581.69
2024-02-15T03:03:31.558Z,101569.50
2024-02-15T03:05:58.113Z,101571.28
2024-02-15T03:08:25.182Z,101569.03
2024-02-15T03:10:52.290Z,101566.75
2024-02-15T03:13:20.130Z,101567.88
2024-02-15T03:15:48.893Z,101563.50
2024-02-15T03:18:18.655Z,101560.88
2024-02-15T03:20:45.488Z,101565.78
2024-02-15T03:23:12.654Z,101576.03
2024-02-15T03:25:39.532Z,101575.19
2024-02-15T03:28:06.266Z,101572.06
2024-02-15T03:30:34.897Z,101577.63
2024-02-15T03:33:01.721Z,101578.59
2024-02-15T03:35:32.436Z,101569.81
2024-02-15T03:37:59.705Z,101569.34
2024-02-15T03:40:27.821Z,101559.88
2024-02-15T03:42:54.951Z,101576.31
2024-02-15T03:45:22.101Z,101576.13
2024-02-15T03:47:51.601Z,101575.81
2024-02-15T03:50:20.089Z,101564.28
2024-02-15T03:52:46.790Z,101562.81
2024-02-15T03:55:13.645Z,101556.63
2024-02-15T03:57:47.662Z,101557.59
2024-02-15T04:00:22.588Z,101563.97
2024-02-15T04:02:50.128Z,101571.28
2024-02-15T04:05:16.937Z,101562.19
2024-02-15T04:07:44.814Z,101566.72
2024-02-15T04:10:11.437Z,101549.16
2024-02-15T04:12:38.078Z,101561.63
2024-02-15T04:15:13.530Z,101557.28
2024-02-15T04:17:41.785Z,101554.75
2024-02-15T04:20:09.228Z,101556.41
2024-02-15T04:22:38.528Z,101554.16
2024-02-15T04:25:11.435Z,101545.25
2024-02-15T04:27:38.035Z,101557.44
2024-02-15T04:30:05.550Z,101553.06
2024-02-15T04:32:34.944Z,101546.06
2024-02-15T04:35:02.733Z,101549.31
2024-02-15T04:37:33.155Z,101544.78
2024-02-15T04:40:08.171Z,101545.63
2024-02-15T04:42:35.474Z,101538.56
2024-02-15T04:45:02.828Z,101543.81
2024-02-15T04:47:31.248Z,101543.16
2024-02-15T04:49:58.060Z,101545.41
2024-02-15T04:52:25.135Z,101534.72
2024-02-15T04:54:52.144Z,101535.00
2024-02-15T04:57:18.798Z,101533.25
2024-02-15T04:59:48.386Z,101529.50
2024-02-15T05:02:15.210Z,101533.41
2024-02-15T05:04:43.797Z,101527.72
2024-02-15T05:07:11.138Z,101534.22
2024-02-15T05:09:37.663Z,101538.13
2024-02-15T05:12:05.303Z,101529.81
2024-02-15T05:14:32.630Z,101538.13
2024-02-15T05:17:00.497Z,101541.56
2024-02-15T05:19:28.248Z,101533.06
2024-02-15T05:21:56.141Z,101535.53
2024-02-15T05:24:23.337Z,101533.59
2024-02-15T05:26:50.229Z,101530.69
2024-02-15T05:29:17.823Z,101521.75
2024-02-15T05:31:44.462Z,101516.84
2024-02-15T05:34:13.009Z,101501.88
2024-02-15T05:36:40.355Z,101482.53
2024-02-15T05:39:07.231Z,101464.97
2024-02-15T05:41:34.015Z,101455.88
2024-02-15T05:44:00.743Z,101447.59
2024-02-15T05:46:29.133Z,101467.28
2024-02-15T05:48:56.031Z,101452.97
2024-02-15T05:51:23.593Z,101468.25
2024-02-15T05:53:50.783Z,101451.97
2024-02-15T05:56:18.059Z,101464.19
2024-02-15T05:58:44.852Z,101480.75
2024-02-15T06:01:14.094Z,101461.56
2024-02-15T06:03:41.943Z,101474.44
2024-02-15T06:06:09.013Z,101474.25
2024-02-15T06:08:36.244Z,101468.03
2024-02-15T06:11:03.503Z,101464.34
2024-02-15T06:13:30.335Z,101475.09
2024-02-15T06:15:56.858Z,101478.19
2024-02-15T06:18:27.418Z,101478.00
2024-02-15T06:20:56.550Z,101483.03
2024-02-15T06:23:23.517Z,101480.75
2024-02-15T06:25:54.112Z,101487.75
2024-02-15T06:28:42.187Z,101485.94
2024-02-15T06:31:28.225Z,101485.63
2024-02-15T06:34:13.878Z,101470.03
2024-02-15T06:37:15.455Z,101464.19
2024-02-15T06:39:43.232Z,101478.00
2024-02-15T06:42:12.483Z,101485.78
2024-02-15T06:44:41.573Z,101477.03
2024-02-15T06:47:08.374Z,101470.03
2024-02-15T06:49:34.942Z,101429.22
2024-02-15T06:52:03.431Z,101454.56
2024-02-15T06:54:29.988Z,101466.13
2024-02-15T06:56:56.498Z,101468.09
2024-02-15T06:59:23.555Z,101465.19
2024-02-15T07:01:53.209Z,101463.69
2024-02-15T07:04:21.617Z,101476.69
2024-02-15T07:06:50.502Z,101473.75
2024-02-15T07:09:19.055Z,101493.78
2024-02-15T07:11:50.441Z,101496.41
2024-02-15T07:14:18.330Z,101493.78
2024-02-15T07:16:48.667Z,101471.66
2024-02-15T07:19:15.481Z,101479.97
2024-02-15T07:21:42.650Z,101479.63
2024-02-15T07:24:10.813Z,101490.22
2024-02-15T07:26:38.043Z,101496.75
2024-02-15T07:29:09.082Z,101511.84
2024-02-15T07:31:35.945Z,101506.31
2024-02-15T07:34:02.878Z,101516.72
2024-02-15T07:36:29.792Z,101513.50
2024-02-15T07:39:02.646Z,101510.22
2024-02-15T07:41:29.873Z,101519.34
2024-02-15T07:43:56.911Z,101516.91
2024-02-15T07:46:23.674Z,101495.09
2024-02-15T07:48:53.457Z,101509.09
2024-02-15T07:51:21.837Z,101510.16
2024-02-15T07:53:48.971Z,101491.03
2024-02-15T07:56:16.724Z,101478.34
2024-02-15T07:58:51.815Z,101466.31
2024-02-15T08:01:22.222Z,101478.03
2024-02-15T08:03:49.351Z,101487.78
2024-02-15T08:06:17.412Z,101485.53
2024-02-15T08:08:47.934Z,101490.09
2024-02-15T08:11:18.307Z,101487.97
2024-02-15T08:13:51.090Z,101476.22
2024-02-15T08:16:19.176Z,101464.69
2024-02-15T08:18:47.250Z,101489.09
2024-02-15T08:21:14.122Z,101485.69
2024-02-15T08:23:40.702Z,101479.81
2024-02-15T08:26:07.182Z,101476.88
2024-02-15T08:28:33.637Z,101478.69
2024-02-15T08:31:00.156Z,101488.28
2024-02-15T08:33:29.629Z,101484.19
2024-02-15T08:35:56.625Z,101474.47
2024-02-15T08:38:24.245Z,101471.69
2024-02-15T08:40:50.723Z,101467.31
2024-02-15T08:43:17.706Z,101456.56
2024-02-15T08:45:44.737Z,101424.19
2024-02-15T08:48:12.338Z,101443.06
2024-02-15T08:50:39.922Z,101445.03
2024-02-15T08:53:07.783Z,101436.09
2024-02-15T08:55:36.906Z,101431.03
2024-02-15T08:58:05.016Z,101446.16
2024-02-15T09:00:31.840Z,101437.56
2024-02-15T09:02:58.717Z,101446.03
2024-02-15T09:05:25.695Z,101454.00
2024-02-15T09:07:52.781Z,101442.28
2024-02-15T09:10:19.548Z,101449.59
2024-02-15T09:12:50.389Z,101451.84
2024-02-15T09:15:17.509Z,101443.56
2024-02-15T09:17:46.971Z,101446.50
2024-02-15T09:20:16.985Z,101450.06
2024-02-15T09:22:45.469Z,101451.72
2024-02-15T09:25:14.091Z,101449.91
2024-02-15T09:27:41.059Z,101458.53
2024-02-15T09:30:10.614Z,101446.34
2024-02-15T09:32:38.066Z,101447.63
2024-02-15T09:35:08.908Z,101457.56
2024-02-15T09:37:36.495Z,101448.13
2024-02-15T09:40:07.499Z,101456.44
2024-02-15T09:42:35.876Z,101462.78
2024-02-15T09:45:03.553Z,101457.25
2024-02-15T09:47:41.623Z,101460.50
2024-02-15T09:50:09.713Z,101465.88
2024-02-15T09:52:39.003Z,101458.72
2024-02-15T09:55:06.280Z,101476.28
2024-02-15T09:57:36.294Z,101459.34
2024-02-15T10:00:08.386Z,101461.97
2024-02-15T10:02:37.272Z,101462.31
2024-02-15T10:05:04.020Z,101458.69
2024-02-15T10:07:30.540Z,101460.50
2024-02-15T10:10:00.416Z,101449.41
2024-02-15T10:12:38.704Z,101445.50
2024-02-15T10:17:36.497Z,101456.09
2024-02-15T10:20:07.366Z,101466.03
2024-02-15T10:22:34.154Z,101460.19
2024-02-15T10:25:16.081Z,101458.84
2024-02-15T10:27:46.546Z,101461.34
2024-02-15T10:30:20.101Z,101456.75
2024-02-15T10:32:47.740Z,101463.72
2024-02-15T10:35:21.738Z,101449.25
2024-02-15T10:37:50.331Z,101461.59
2024-02-15T10:40:20.960Z,101461.13
2024-02-15T10:42:52.815Z,101457.84
2024-02-15T10:45:20.550Z,101452.28
2024-02-15T10:47:50.116Z,101456.97
2024-02-15T10:50:19.570Z,101454.00
2024-02-15T10:52:59.431Z,101442.44
2024-02-15T10:55:28.962Z,101438.44
2024-02-15T10:57:56.461Z,101444.13
2024-02-15T11:00:26.609Z,101445.41
2024-02-15T11:03:09.398Z,101438.22
2024-02-15T11:05:38.733Z,101431.22
2024-02-15T11:08:11.765Z,101434.16
2024-02-15T11:10:39.427Z,101440.72
2024-02-15T11:13:06.568Z,101439.34
2024-02-15T11:15:47.909Z,101437.97
2024-02-15T11:18:14.617Z,101437.06
2024-02-15T11:20:41.101Z,101441.81
2024-02-15T11:23:07.644Z,101437.56
2024-02-15T11:25:35.784Z,101433.53
2024-02-15T11:28:24.432Z,101440.72
2024-02-15T11:30:51.176Z,101426.38
2024-02-15T11:33:32.010Z,101431.88
2024-02-15T11:36:14.561Z,101424.91
2024-02-15T11:38:45.407Z,101416.50
2024-02-15T11:41:12.195Z,101417.47
2024-02-15T11:43:44.624Z,101412.22
2024-02-15T11:46:14.794Z,101416.50
2024-02-15T11:48:41.694Z,101395.44
2024-02-15T11:51:08.448Z,101397.41
2024-02-15T11:53:34.912Z,101396.63
2024-02-15T11:56:02.942Z,101387.75
2024-02-15T11:58:42.997Z,101393.44
2024-02-15T12:01:28.562Z,101392.00
2024-02-15T12:04:15.044Z,101386.16
2024-02-15T12:07:00.524Z,101388.75
2024-02-15T12:09:45.847Z,101388.69
2024-02-15T12:12:30.712Z,101384.44
2024-02-15T12:15:23.174Z,101383.66
2024-02-15T12:18:08.906Z,101372.28
2024-02-15T12:20:36.110Z,101364.44
2024-02-15T12:23:03.015Z,101346.34
2024-02-15T12:25:29.689Z,101348.94
2024-02-15T12:27:57.191Z,101355.25
2024-02-15T12:30:24.391Z,101353.44
2024-02-15T12:32:51.908Z,101345.41
2024-02-15T12:35:21.198Z,101349.84
2024-02-15T12:37:48.162Z,101347.66
2024-02-15T12:40:18.157Z,101344.00
2024-02-15T12:42:45.508Z,101346.38
2024-02-15T12:45:31.024Z,101341.31
2024-02-15T12:47:58.758Z,101349.03
2024-02-15T12:50:30.041Z,101337.25
2024-02-15T12:52:56.758Z,101346.41
2024-02-15T12:55:26.150Z,101337.53
2024-02-15T12:57:54.432Z,101334.63
2024-02-15T13:00:29.861Z,101329.31
2024-02-15T13:02:57.327Z,101328.69
2024-02-15T13:05:27.324Z,101337.81
2024-02-15T13:08:06.149Z,101325.03
2024-02-15T13:10:33.077Z,101316.38
2024-02-15T13:12:59.619Z,101305.91
2024-02-15T13:15:33.967Z,101312.41
2024-02-15T13:18:01.588Z,101305.91
2024-02-15T13:20:35.082Z,101307.38
2024-02-15T13:23:16.028Z,101296.28
2024-02-15T13:25:44.403Z,101298.72
2024-02-15T13:28:14.063Z,101297.75
2024-02-15T13:30:42.332Z,101297.97
2024-02-15T13:33:09.130Z,101287.06
2024-02-15T13:35:35.740Z,101283.28
2024-02-15T13:38:03.472Z,101279.47
2024-02-15T13:40:31.456Z,101280.22
2024-02-15T13:43:01.551Z,101263.47
2024-02-15T13:45:34.343Z,101266.72
2024-02-15T13:48:04.793Z,101264.13
2024-02-15T13:50:32.008Z,101264.31
2024-02-15T13:52:59.375Z,101261.69
2024-02-15T13:55:30.031Z,101263.53
2024-02-15T13:57:57.890Z,101265.53
2024-02-15T14:00:30.697Z,101261.13
2024-02-15T14:02:59.515Z,101249.25
2024-02-15T14:05:29.218Z,101248.81
2024-02-15T14:08:03.437Z,101241.56
2024-02-15T14:10:31.488Z,101240.16
2024-02-15T14:13:02.423Z,101243.19
2024-02-15T14:15:38.326Z,101247.38
2024-02-15T14:18:14.526Z,101246.19
2024-02-15T14:20:43.924Z,101244.44
2024-02-15T14:23:15.029Z,101248.44
2024-02-15T14:25:42.811Z,101242.97
2024-02-15T14:28:09.430Z,101235.31
2024-02-15T14:30:59.004Z,101235.38
2024-02-15T14:33:32.996Z,101246.97
2024-02-15T14:36:01.075Z,101248.22
2024-02-15T14:38:28.084Z,101248.25
2024-02-15T14:40:55.267Z,101245.19
2024-02-15T14:43:22.878Z,101232.50
2024-02-15T14:45:49.967Z,101236.13
2024-02-15T14:48:18.779Z,101233.91
2024-02-15T14:50:45.512Z,101235.09
2024-02-15T14:53:14.179Z,101232.00
2024-02-15T14:55:40.991Z,101239.28
2024-02-15T14:58:13.034Z,101232.66
2024-02-15T15:00:43.087Z,101228.41
2024-02-15T15:03:10.125Z,101229.81
2024-02-15T15:05:55.093Z,101227.19
2024-02-15T15:08:40.167Z,101221.59
2024-02-15T15:11:25.398Z,101217.53
2024-02-15T15:13:53.061Z,101223.00
2024-02-15T15:16:22.111Z,101214.13
2024-02-15T15:18:49.486Z,101206.25
2024-02-15T15:21:20.302Z,101212.91
2024-02-15T15:23:46.971Z,101206.25
2024-02-15T15:26:20.472Z,101204.59
2024-02-15T15:28:47.096Z,101204.38
2024-02-15T15:31:13.744Z,101200.50
2024-02-15T15:33:40.443Z,101197.06
2024-02-15T15:36:07.369Z,101201.66
2024-02-15T15:38:34.122Z,101187.09
2024-02-15T15:41:00.697Z,101195.56
2024-02-15T15:43:27.284Z,101197.16
2024-02-15T15:45:53.968Z,101195.03
2024-02-15T15:48:20.573Z,101192.59
2024-02-15T15:50:49.134Z,101193.13
2024-02-15T15:53:15.657Z,101182.19
2024-02-15T15:55:42.980Z,101168.63
2024-02-15T15:58:09.453Z,101188.59
2024-02-15T16:00:37.614Z,101199.06
2024-02-15T16:03:06.169Z,101187.72
2024-02-15T16:05:33.030Z,101193.09
2024-02-15T16:07:59.785Z,101190.66
2024-02-15T16:10:29.634Z,101196.06
2024-02-15T16:13:01.659Z,101189.41
2024-02-15T16:15:28.669Z,101181.88
2024-02-15T16:17:55.973Z,101177.59
2024-02-15T16:20:23.851Z,101165.28
2024-02-15T16:22:50.576Z,101173.13
2024-02-15T16:25:17.107Z,101165.03
2024-02-15T16:27:47.398Z,101167.41
2024-02-15T16:30:14.991Z,101168.78
2024-02-15T16:32:42.176Z,101169.50
2024-02-15T16:35:14.301Z,101174.50
2024-02-15T16:37:45.064Z,101167.03
2024-02-15T16:40:13.920Z,101157.50
2024-02-15T16:42:45.928Z,101150.41
2024-02-15T16:45:15.736Z,101136.28
2024-02-15T16:47:45.014Z,101148.69
2024-02-15T16:50:11.851Z,101144.00
2024-02-15T16:52:41.766Z,101134.03
2024-02-15T16:55:10.182Z,101151.56
2024-02-15T16:57:37.305Z,101158.16
2024-02-15T17:00:08.498Z,101153.66
2024-02-15T17:02:36.497Z,101150.59
2024-02-15T17:05:05.364Z,101148.38
2024-02-15T17:07:32.135Z,101157.56
2024-02-15T17:09:58.755Z,101137.72
2024-02-15T17:12:25.493Z,101155.25
2024-02-15T17:14:52.016Z,101146.16
2024-02-15T17:17:18.668Z,101141.66
2024-02-15T17:19:47.229Z,101143.81
2024-02-15T17:22:14.104Z,101138.53
2024-02-15T17:24:42.552Z,101139.06
2024-02-15T17:27:09.473Z,101138.00
2024-02-15T17:29:36.205Z,101137.38
2024-02-15T17:32:02.856Z,101140.34
2024-02-15T17:34:31.691Z,101142.63
2024-02-15T17:36:59.500Z,101130.31
2024-02-15T17:39:26.350Z,101139.41
2024-02-15T17:41:54.387Z,101145.09
2024-02-15T17:44:21.183Z,101149.84
2024-02-15T17:46:47.755Z,101144.00
2024-02-15T17:49:14.282Z,101150.03
2024-02-15T17:51:44.483Z,101142.56
2024-02-15T17:54:11.331Z,101136.06
2024-02-15T17:56:38.042Z,101149.56
2024-02-15T17:59:04.739Z,101150.75
2024-02-15T18:01:33.078Z,101134.72
2024-02-15T18:03:59.850Z,101146.88
2024-02-15T18:06:26.595Z,101146.25
2024-02-15T18:08:53.230Z,101154.25
2024-02-15T18:11:21.279Z,101147.56
2024-02-15T18:13:48.470Z,101138.31
2024-02-15T18:16:17.597Z,101134.25
2024-02-15T18:18:44.336Z,101136.50
2024-02-15T18:21:11.206Z,101135.09
2024-02-15T18:23:40.398Z,101134.19
2024-02-15T18:26:07.361Z,101134.00
2024-02-15T18:28:34.069Z,101132.53
2024-02-15T18:31:00.589Z,101121.47
2024-02-15T18:33:30.216Z,101119.41
2024-02-15T18:35:58.580Z,101117.03
2024-02-15T18:38:28.780Z,101112.00
2024-02-15T18:40:57.970Z,101116.88
2024-02-15T18:43:26.012Z,101115.25
2024-02-15T18:45:52.592Z,101115.25
2024-02-15T18:48:19.252Z,101109.41
2024-02-15T18:50:46.863Z,101104.19
2024-02-15T18:53:15.456Z,101093.75
2024-02-15T18:55:42.655Z,101090.34
2024-02-15T18:58:09.307Z,101090.19
2024-02-15T19:00:43.172Z,101085.94
2024-02-15T19:03:16.442Z,101092.44
2024-02-15T19:05:45.350Z,101080.72
2024-02-15T19:08:12.272Z,101096.31
2024-02-15T19:10:38.899Z,101086.22
2024-02-15T19:13:05.472Z,101086.69
2024-02-15T19:15:33.200Z,101094.16
2024-02-15T19:18:05.035Z,101083.72
2024-02-15T19:20:33.125Z,101085.53
2024-02-15T19:22:59.741Z,101076.06
2024-02-15T19:25:26.838Z,101076.78
2024-02-15T19:27:54.259Z,101076.59
2024-02-15T19:30:20.998Z,101071.59
2024-02-15T19:32:49.912Z,101071.59
2024-02-15T19:35:17.713Z,101072.72
2024-02-15T19:37:44.343Z,101081.72
2024-02-15T19:40:18.797Z,101068.88
2024-02-15T19:42:46.769Z,101071.03
2024-02-15T19:45:18.424Z,101078.22
2024-02-15T19:47:48.501Z,101080.00
2024-02-15T19:50:17.081Z,101073.81
2024-02-15T19:52:43.761Z,101073.63
2024-02-15T19:55:11.674Z,101073.00
2024-02-15T19:57:38.186Z,101063.53
2024-02-15T20:00:08.433Z,101063.91
2024-02-15T20:02:35.994Z,101053.22
2024-02-15T20:05:04.076Z,101055.44
2024-02-15T20:07:30.868Z,101053.03
2024-02-15T20:09:57.913Z,101045.75
2024-02-15T20:12:25.036Z,101043.13
2024-02-15T20:14:51.866Z,101042.97
2024-02-15T20:17:18.528Z,101054.19
2024-02-15T20:19:45.112Z,101049.16
2024-02-15T20:22:11.617Z,101035.03
2024-02-15T20:24:39.491Z,101034.41
2024-02-15T20:27:06.453Z,101020.75
2024-02-15T20:29:32.987Z,101018.94
2024-02-15T20:31:59.752Z,100998.19
2024-02-15T20:34:27.310Z,101013.72
2024-02-15T20:36:53.966Z,101021.38
2024-02-15T20:39:20.537Z,101018.13
2024-02-15T20:41:47.339Z,101007.88
2024-02-15T20:44:14.227Z,101002.06
2024-02-15T20:46:40.716Z,100990.72
2024-02-15T20:49:07.290Z,100999.28
2024-02-15T20:51:36.434Z,100980.13
2024-02-15T20:54:03.170Z,100970.63
2024-02-15T20:56:30.537Z,100986.06
2024-02-15T20:58:57.701Z,100988.50
2024-02-15T21:01:24.264Z,100991.75
2024-02-15T21:03:51.053Z,100989.47
2024-02-15T21:06:22.812Z,100979.94
2024-02-15T21:08:58.379Z,100980.13
2024-02-15T21:11:25.676Z,100982.09
2024-02-15T21:13:52.774Z,100982.00
2024-02-15T21:16:20.956Z,100993.44
2024-02-15T21:18:49.241Z,100991.47
2024-02-15T21:21:16.040Z,100988.84
2024-02-15T21:23:43.297Z,100983.00
2024-02-15T21:26:10.727Z,100994.22
2024-02-15T21:28:45.116Z,100992.97
2024-02-15T21:31:18.001Z,100997.34
2024-02-15T21:33:45.129Z,100999.34
2024-02-15T21:36:12.651Z,100997.63
2024-02-15T21:38:40.107Z,101006.06
2024-02-15T21:41:08.299Z,101000.06
2024-02-15T21:43:35.425Z,100992.25
2024-02-15T21:46:03.358Z,100991.59
2024-02-15T21:48:33.708Z,100988.72
2024-02-15T21:51:00.669Z,100988.25
2024-02-15T21:53:27.949Z,100984.38
2024-02-15T21:55:54.698Z,100984.72
2024-02-15T21:58:21.280Z,100988.94
2024-02-15T22:00:47.852Z,100980.84
2024-02-15T22:03:14.695Z,100988.75
2024-02-15T22:05:41.373Z,100989.47
2024-02-15T22:08:14.748Z,100979.84
2024-02-15T22:10:42.271Z,100981.94
2024-02-15T22:13:09.578Z,100985.97
2024-02-15T22:15:39.082Z,100987.13
2024-02-15T22:18:06.814Z,100987.94
2024-02-15T22:20:33.795Z,100988.75
2024-02-15T22:23:00.533Z,100982.72
2024-02-15T22:25:27.499Z,100985.97
2024-02-15T22:27:54.719Z,100996.38
2024-02-15T22:30:21.326Z,100994.41
2024-02-15T22:32:48.066Z,100965.81
2024-02-15T22:35:15.685Z,101000.34
2024-02-15T22:37:45.305Z,100999.34
2024-02-15T22:40:12.019Z,100989.78
2024-02-15T22:42:38.691Z,100986.28
2024-02-15T22:45:08.336Z,100993.06
2024-02-15T22:47:35.594Z,101002.47
2024-02-15T22:50:02.395Z,101001.69
2024-02-15T22:52:29.854Z,101004.28
2024-02-15T22:54:56.377Z,101001.69
2024-02-15T22:57:22.843Z,100995.84
2024-02-15T22:59:52.819Z,100993.41
2024-02-15T23:02:20.660Z,100987.91
2024-02-15T23:04:48.423Z,100985.63
2024-02-15T23:07:15.219Z,100988.25
2024-02-15T23:09:43.588Z,100983.88
2024-02-15T23:12:10.128Z,100982.22
2024-02-15T23:14:36.617Z,100981.78
2024-02-15T23:17:03.109Z,100980.16
2024-02-15T23:19:29.971Z,100984.91
2024-02-15T23:21:56.627Z,100983.44
2024-02-15T23:24:23.376Z,100982.03
2024-02-15T23:26:49.939Z,100982.81
2024-02-15T23:29:17.078Z,100986.22
2024-02-15T23:31:43.720Z,100976.34
2024-02-15T23:34:10.674Z,100978.13
2024-02-15T23:36:56.002Z,100987.09
2024-02-15T23:39:40.876Z,100980.09
2024-02-15T23:42:08.275Z,100981.44
2024-02-15T23:44:34.897Z,100971.81
2024-02-15T23:47:01.459Z,100971.03
2024-02-15T23:49:28.558Z,100966.16
2024-02-15T23:51:55.937Z,100964.72
2024-02-15T23:54:22.698Z,100971.09
2024-02-15T23:56:49.242Z,100968.81
2024-02-15T23:59:15.759Z,100969.16
